Clarion, IA

18:09 CST le 03 Mars 2015 (GMT -0600)
Clarion Municipal | Change Station
CLOSE
Current Station
Aéroport
Location: Clarion,
Altitude: 1161 ft
Stations météo à proximité

Alt. 1161 ft 42.74 °N, 93.76 °W | Updated 14 minutes ago

Scattered Clouds
Nuages épars
19 ° F
Paraît 2 ° F
N
25
Vent Variable Vent de NO
Gusts 34 mph

Aujourd'hui
Haut(e) -- | Bas -- ° F
--% Risque de précip.
Hier
Haut(e) -- | Bas -- ° F
Precip. -- pouce
6:47 AM 6:06 PM
Lune gibbeuse croissante, 97% visible
Pression 29.90 pouce
Visibilité 10.0 Miles terrestres
Nuages Nuages épars 1500 ft
Nuages épars 1900 ft
Refroidissement éolien 2 ° F
Point de rosée 14 ° F
Humidité 80%
Précipitations 0.00 pouce
Profondeur de la couche neigeuse Non disponible.
UV 0 sur 12
Pollen .50 sur 12
Qualité de l'air Non disponible.
Flu Activity Non disponible.
METAR KCAV 032355Z AUTO 32022G30KT 10SM SCT015 SCT019 M07/M10 A2990 RMK AO2

More Conditions Fewer Conditions

Pression 29.90 pouce
Visibilité 10.0 Miles terrestres
Nuages Nuages épars 1500 ft
Nuages épars 1900 ft
Refroidissement éolien 2 ° F
Point de rosée 14 ° F
Humidité 80%
Précipitations 0.00 pouce
Profondeur de la couche neigeuse Non disponible.
UV 0 sur 12
Pollen .50 sur 12
Qualité de l'air Non disponible.
Flu Activity Non disponible.
METAR KCAV 032355Z AUTO 32022G30KT 10SM SCT015 SCT019 M07/M10 A2990 RMK AO2

More Conditions Fewer Conditions

10-Day Weather Forecast

Almanac

Astronomie

Mar. 03, 2015 Lever Coucher
Temps réel
Crépuscule civil
Crépuscule nautique
Crépuscule astronomique
Lune
Durée de lumière visible
Longueur du jour
Tomorrow will be .
, % of the Moon is Illuminated

Extrêmes aujourd'hui

State Highs State Lows

Community

WunderPhotos

Upload Photos

1,802,329 Photos téléchargées !

WunderBlogs® & News

Nearby

Qualité de l'air

  Qualité de l'air Indice de la qualité de l'air Polluant
Not available.

Épaisseur de neige

Station Depth Altitude

Activité sismique

Ville Distance Mag. Time & Date
Minimum magnitude displayed is 2.5.

Températures des eaux côtières

Lieu Température

Stations météo à proximité